Time,TemperatureF,DewpointF,PressureIn,WindDirection,WindDirectionDegrees,WindSpeedMPH,WindSpeedGustMPH,Humidity,HourlyPrecipIn,Conditions,Clouds,dailyrainin,SoftwareType,DateUTC
2013-05-06 00:03:00,45.0,42.5,30.10,NNE,18,0.0,0.0,91,0.00,,,0.00,Wunderground v.1.15,2013-05-06 05:03:00,
2013-05-06 00:08:00,45.2,42.7,30.10,NNE,19,0.0,0.0,91,0.00,,,0.00,Wunderground v.1.15,2013-05-06 05:08:00,
2013-05-06 00:13:00,45.3,42.8,30.10,NNE,18,0.0,0.0,91,0.00,,,0.00,Wunderground v.1.15,2013-05-06 05:13:00,
2013-05-06 00:18:00,45.2,42.7,30.10,NNE,19,0.0,0.0,91,0.00,,,0.00,Wunderground v.1.15,2013-05-06 05:18:00,
2013-05-06 00:24:00,45.2,42.7,30.10,NNE,19,0.0,0.0,91,0.00,,,0.00,Wunderground v.1.15,2013-05-06 05:24:00,
2013-05-06 00:29:00,45.2,42.7,30.10,NNE,19,2.0,2.0,91,0.00,,,0.00,Wunderground v.1.15,2013-05-06 05:29:00,
2013-05-06 00:34:00,45.3,42.8,30.10,NNE,18,0.0,2.0,91,0.00,,,0.00,Wunderground v.1.15,2013-05-06 05:34:00,
2013-05-06 00:40:00,45.4,42.9,30.10,NNE,19,2.0,2.0,91,0.00,,,0.00,Wunderground v.1.15,2013-05-06 05:40:00,
2013-05-06 00:46:00,45.4,42.9,30.10,NNE,18,2.0,4.0,91,0.00,,,0.00,Wunderground v.1.15,2013-05-06 05:46:00,
2013-05-06 00:51:00,45.4,42.9,30.10,NNE,19,2.0,3.0,91,0.00,,,0.00,Wunderground v.1.15,2013-05-06 05:51:00,
2013-05-06 00:56:00,45.4,42.9,30.10,NNE,19,2.0,3.0,91,0.00,,,0.00,Wunderground v.1.15,2013-05-06 05:56:00,
2013-05-06 01:01:00,45.4,42.9,30.09,NNE,18,0.0,3.0,91,0.00,,,0.00,Wunderground v.1.15,2013-05-06 06:01:00,
2013-05-06 01:07:00,45.3,42.8,30.09,NNE,19,1.0,3.0,91,0.00,,,0.00,Wunderground v.1.15,2013-05-06 06:07:00,
2013-05-06 01:12:00,45.3,42.5,30.09,NNE,19,0.0,1.0,90,0.00,,,0.00,Wunderground v.1.15,2013-05-06 06:12:00,
2013-05-06 01:17:00,45.2,42.4,30.09,NNE,19,0.0,1.0,90,0.00,,,0.00,Wunderground v.1.15,2013-05-06 06:17:00,
2013-05-06 01:22:00,45.1,42.3,30.09,NNE,18,0.0,0.0,90,0.00,,,0.00,Wunderground v.1.15,2013-05-06 06:22:00,
2013-05-06 01:27:00,45.0,42.2,30.09,NNE,18,0.0,0.0,90,0.00,,,0.00,Wunderground v.1.15,2013-05-06 06:27:00,
2013-05-06 01:32:00,45.0,42.2,30.09,NNE,19,0.0,0.0,90,0.00,,,0.00,Wunderground v.1.15,2013-05-06 06:32:00,
2013-05-06 01:37:00,44.9,42.1,30.09,NNE,19,0.0,0.0,90,0.00,,,0.00,Wunderground v.1.15,2013-05-06 06:37:00,
2013-05-06 01:43:00,44.8,42.0,30.09,NNE,19,0.0,0.0,90,0.00,,,0.00,Wunderground v.1.15,2013-05-06 06:43:00,
2013-05-06 01:48:00,44.7,41.9,30.09,NNE,19,0.0,0.0,90,0.00,,,0.00,Wunderground v.1.15,2013-05-06 06:48:00,
2013-05-06 01:53:00,44.7,41.9,30.09,NNE,19,0.0,0.0,90,0.00,,,0.00,Wunderground v.1.15,2013-05-06 06:53:00,
2013-05-06 01:58:00,44.7,41.9,30.09,NNE,19,0.0,0.0,90,0.00,,,0.00,Wunderground v.1.15,2013-05-06 06:58:00,
2013-05-06 02:03:00,44.7,41.9,30.09,NNE,18,0.0,0.0,90,0.00,,,0.00,Wunderground v.1.15,2013-05-06 07:03:00,
2013-05-06 02:08:00,44.6,41.8,30.09,NNE,18,0.0,0.0,90,0.00,,,0.00,Wunderground v.1.15,2013-05-06 07:08:00,
2013-05-06 02:13:00,44.6,41.8,30.09,NNE,18,0.0,0.0,90,0.00,,,0.00,Wunderground v.1.15,2013-05-06 07:13:00,
2013-05-06 02:18:00,44.6,41.8,30.08,NNE,19,0.0,0.0,90,0.00,,,0.00,Wunderground v.1.15,2013-05-06 07:18:00,
2013-05-06 02:23:00,44.6,41.8,30.08,NNE,19,0.0,1.0,90,0.00,,,0.00,Wunderground v.1.15,2013-05-06 07:23:00,
2013-05-06 02:28:00,44.6,41.8,30.08,NNE,19,0.0,1.0,90,0.00,,,0.00,Wunderground v.1.15,2013-05-06 07:28:00,
2013-05-06 02:33:00,44.6,41.8,30.08,NNE,19,0.0,1.0,90,0.00,,,0.00,Wunderground v.1.15,2013-05-06 07:33:00,
2013-05-06 02:38:00,44.6,41.8,30.08,NNE,19,0.0,1.0,90,0.00,,,0.00,Wunderground v.1.15,2013-05-06 07:38:00,
2013-05-06 02:43:00,44.5,41.7,30.08,NNE,19,0.0,0.0,90,0.00,,,0.00,Wunderground v.1.15,2013-05-06 07:43:00,
2013-05-06 02:48:00,44.5,41.7,30.08,NNE,19,0.0,0.0,90,0.00,,,0.00,Wunderground v.1.15,2013-05-06 07:48:00,
2013-05-06 02:53:00,44.5,41.5,30.08,NNE,18,0.0,2.0,89,0.00,,,0.00,Wunderground v.1.15,2013-05-06 07:53:00,
2013-05-06 02:58:00,44.4,41.4,30.08,NNE,19,0.0,2.0,89,0.00,,,0.00,Wunderground v.1.15,2013-05-06 07:58:00,
2013-05-06 03:03:00,44.4,41.4,30.07,NNE,19,0.0,2.0,89,0.00,,,0.00,Wunderground v.1.15,2013-05-06 08:03:00,
2013-05-06 03:08:00,44.5,41.5,30.08,NNE,18,0.0,2.0,89,0.00,,,0.00,Wunderground v.1.15,2013-05-06 08:08:00,
2013-05-06 03:13:00,44.4,41.4,30.08,NNE,18,0.0,0.0,89,0.00,,,0.00,Wunderground v.1.15,2013-05-06 08:13:00,
2013-05-06 03:18:00,44.3,41.3,30.08,NNE,19,0.0,0.0,89,0.00,,,0.00,Wunderground v.1.15,2013-05-06 08:18:00,
2013-05-06 03:23:00,44.3,41.3,30.08,NNE,18,0.0,0.0,89,0.00,,,0.00,Wunderground v.1.15,2013-05-06 08:23:00,
2013-05-06 03:28:00,44.2,41.2,30.08,NNE,18,0.0,2.0,89,0.00,,,0.00,Wunderground v.1.15,2013-05-06 08:28:00,
2013-05-06 03:33:00,44.2,41.2,30.08,NNE,19,0.0,2.0,89,0.00,,,0.00,Wunderground v.1.15,2013-05-06 08:33:00,
2013-05-06 03:38:00,44.2,41.2,30.08,NNE,19,0.0,2.0,89,0.00,,,0.00,Wunderground v.1.15,2013-05-06 08:38:00,
2013-05-06 03:43:00,44.1,41.1,30.08,NNE,19,0.0,2.0,89,0.00,,,0.00,Wunderground v.1.15,2013-05-06 08:43:00,
2013-05-06 03:48:00,44.1,41.1,30.08,NNE,18,0.0,5.0,89,0.00,,,0.00,Wunderground v.1.15,2013-05-06 08:48:00,
2013-05-06 03:53:00,44.1,41.1,30.08,NNE,19,0.0,2.0,89,0.00,,,0.00,Wunderground v.1.15,2013-05-06 08:53:00,
2013-05-06 03:59:00,44.1,41.1,30.09,NNE,19,0.0,4.0,89,0.00,,,0.00,Wunderground v.1.15,2013-05-06 08:59:00,
2013-05-06 04:04:00,44.1,41.1,30.09,NNE,18,2.0,2.0,89,0.00,,,0.00,Wunderground v.1.15,2013-05-06 09:04:00,
2013-05-06 04:08:00,44.0,41.0,30.09,NNE,19,0.0,2.0,89,0.00,,,0.00,Wunderground v.1.15,2013-05-06 09:08:00,
2013-05-06 04:14:00,44.0,41.0,30.09,NNE,19,0.0,1.0,89,0.00,,,0.00,Wunderground v.1.15,2013-05-06 09:14:00,
2013-05-06 04:19:00,44.0,41.0,30.09,NNE,18,1.0,1.0,89,0.00,,,0.00,Wunderground v.1.15,2013-05-06 09:19:00,
2013-05-06 04:24:00,43.9,40.9,30.09,NNE,19,0.0,0.0,89,0.00,,,0.00,Wunderground v.1.15,2013-05-06 09:24:00,
2013-05-06 04:29:00,43.9,40.9,30.09,NNE,18,0.0,1.0,89,0.00,,,0.00,Wunderground v.1.15,2013-05-06 09:29:00,
2013-05-06 04:34:00,43.9,40.9,30.09,NNE,18,0.0,1.0,89,0.00,,,0.00,Wunderground v.1.15,2013-05-06 09:34:00,
2013-05-06 04:39:00,43.9,40.9,30.09,NNE,19,0.0,2.0,89,0.00,,,0.00,Wunderground v.1.15,2013-05-06 09:39:00,
2013-05-06 04:44:00,43.9,40.9,30.09,NNE,19,0.0,0.0,89,0.00,,,0.00,Wunderground v.1.15,2013-05-06 09:44:00,
2013-05-06 04:49:00,43.9,40.9,30.09,NNE,19,0.0,1.0,89,0.00,,,0.00,Wunderground v.1.15,2013-05-06 09:49:00,
2013-05-06 04:54:00,43.8,40.8,30.09,NNE,19,0.0,0.0,89,0.00,,,0.00,Wunderground v.1.15,2013-05-06 09:54:00,
2013-05-06 04:59:00,43.8,40.8,30.09,NNE,19,1.0,1.0,89,0.00,,,0.00,Wunderground v.1.15,2013-05-06 09:59:00,
2013-05-06 05:04:00,43.8,40.8,30.09,NNE,18,0.0,3.0,89,0.00,,,0.00,Wunderground v.1.15,2013-05-06 10:04:00,
2013-05-06 05:09:00,43.8,40.8,30.09,NNE,19,0.0,3.0,89,0.00,,,0.00,Wunderground v.1.15,2013-05-06 10:09:00,
2013-05-06 05:14:00,43.7,40.7,30.09,NNE,18,0.0,1.0,89,0.00,,,0.00,Wunderground v.1.15,2013-05-06 10:14:00,
2013-05-06 05:19:00,43.7,40.7,30.09,NNE,19,0.0,2.0,89,0.00,,,0.00,Wunderground v.1.15,2013-05-06 10:19:00,
2013-05-06 05:24:00,43.7,40.7,30.10,NNE,18,1.0,2.0,89,0.00,,,0.00,Wunderground v.1.15,2013-05-06 10:24:00,
2013-05-06 05:29:00,43.7,40.7,30.10,NNE,19,0.0,4.0,89,0.00,,,0.00,Wunderground v.1.15,2013-05-06 10:29:00,
2013-05-06 05:34:00,43.6,40.6,30.09,NNE,19,3.0,6.0,89,0.00,,,0.00,Wunderground v.1.15,2013-05-06 10:34:00,
2013-05-06 05:39:00,43.6,40.6,30.09,NNE,19,0.0,6.0,89,0.00,,,0.00,Wunderground v.1.15,2013-05-06 10:39:00,
2013-05-06 05:44:00,43.5,40.8,30.09,NNE,19,0.0,2.0,90,0.00,,,0.00,Wunderground v.1.15,2013-05-06 10:44:00,
2013-05-06 05:49:00,43.4,40.7,30.10,NNE,18,0.0,2.0,90,0.00,,,0.00,Wunderground v.1.15,2013-05-06 10:49:00,
2013-05-06 05:54:00,43.4,40.7,30.10,NNE,19,0.0,3.0,90,0.00,,,0.00,Wunderground v.1.15,2013-05-06 10:54:00,
2013-05-06 05:59:00,43.3,40.6,30.10,NNE,18,0.0,3.0,90,0.00,,,0.00,Wunderground v.1.15,2013-05-06 10:59:00,
2013-05-06 06:04:00,43.3,40.6,30.10,NNE,19,0.0,1.0,90,0.00,,,0.00,Wunderground v.1.15,2013-05-06 11:04:00,
2013-05-06 06:10:00,43.3,40.6,30.10,NNE,19,2.0,2.0,90,0.00,,,0.00,Wunderground v.1.15,2013-05-06 11:10:00,
2013-05-06 06:16:00,43.2,40.5,30.09,NNE,19,1.0,5.0,90,0.00,,,0.00,Wunderground v.1.15,2013-05-06 11:16:00,
2013-05-06 06:21:00,43.1,40.4,30.09,NNE,21,2.0,4.0,90,0.00,,,0.00,Wunderground v.1.15,2013-05-06 11:21:00,
2013-05-06 06:26:00,43.1,40.4,30.09,ENE,62,0.0,4.0,90,0.00,,,0.00,Wunderground v.1.15,2013-05-06 11:26:00,
2013-05-06 06:31:00,43.0,40.3,30.09,ENE,62,0.0,1.0,90,0.00,,,0.00,Wunderground v.1.15,2013-05-06 11:31:00,
2013-05-06 06:36:00,42.9,40.2,30.09,ENE,61,0.0,1.0,90,0.00,,,0.00,Wunderground v.1.15,2013-05-06 11:36:00,
2013-05-06 06:41:00,42.9,40.2,30.09,East,84,0.0,0.0,90,0.00,,,0.00,Wunderground v.1.15,2013-05-06 11:41:00,
2013-05-06 06:46:00,42.8,40.1,30.09,East,85,1.0,1.0,90,0.00,,,0.00,Wunderground v.1.15,2013-05-06 11:46:00,
2013-05-06 06:51:00,42.8,40.1,30.09,East,84,0.0,1.0,90,0.00,,,0.00,Wunderground v.1.15,2013-05-06 11:51:00,
2013-05-06 06:56:00,42.9,40.2,30.10,East,84,0.0,1.0,90,0.00,,,0.00,Wunderground v.1.15,2013-05-06 11:56:00,
2013-05-06 07:01:00,43.0,40.3,30.10,ENE,74,1.0,1.0,90,0.00,,,0.00,Wunderground v.1.15,2013-05-06 12:01:00,
2013-05-06 07:06:00,43.1,40.4,30.10,ESE,106,3.0,3.0,90,0.00,,,0.00,Wunderground v.1.15,2013-05-06 12:06:00,
2013-05-06 07:11:00,43.1,40.7,30.10,SSW,199,1.0,2.0,91,0.00,,,0.00,Wunderground v.1.15,2013-05-06 12:11:00,
2013-05-06 07:16:00,43.2,40.8,30.10,SSW,200,1.0,3.0,91,0.00,,,0.00,Wunderground v.1.15,2013-05-06 12:16:00,
2013-05-06 07:21:00,43.2,40.8,30.10,NE,55,3.0,3.0,91,0.00,,,0.00,Wunderground v.1.15,2013-05-06 12:21:00,
2013-05-06 07:26:00,43.4,40.9,30.10,NE,54,2.0,6.0,91,0.00,,,0.00,Wunderground v.1.15,2013-05-06 12:26:00,
2013-05-06 07:31:00,43.5,40.8,30.10,NE,55,2.0,3.0,90,0.00,,,0.00,Wunderground v.1.15,2013-05-06 12:31:00,
2013-05-06 07:36:00,43.6,40.9,30.10,ENE,67,3.0,7.0,90,0.00,,,0.00,Wunderground v.1.15,2013-05-06 12:36:00,
2013-05-06 07:41:00,43.6,40.9,30.10,ENE,67,2.0,2.0,90,0.00,,,0.00,Wunderground v.1.15,2013-05-06 12:41:00,
2013-05-06 07:46:00,43.7,41.0,30.10,ENE,67,2.0,8.0,90,0.00,,,0.00,Wunderground v.1.15,2013-05-06 12:46:00,
2013-05-06 07:51:00,43.8,41.1,30.10,ENE,67,4.0,5.0,90,0.00,,,0.00,Wunderground v.1.15,2013-05-06 12:51:00,
2013-05-06 07:56:00,43.9,41.2,30.10,ENE,67,0.0,5.0,90,0.00,,,0.00,Wunderground v.1.15,2013-05-06 12:56:00,
2013-05-06 08:01:00,44.1,41.4,30.10,ENE,67,0.0,2.0,90,0.00,,,0.00,Wunderground v.1.15,2013-05-06 13:01:00,
2013-05-06 08:06:00,44.3,41.6,30.10,ENE,67,0.0,2.0,90,0.00,,,0.00,Wunderground v.1.15,2013-05-06 13:06:00,
2013-05-06 08:12:00,44.5,41.7,30.10,ENE,67,0.0,3.0,90,0.00,,,0.00,Wunderground v.1.15,2013-05-06 13:12:00,
2013-05-06 08:17:00,44.7,41.7,30.10,ENE,67,0.0,3.0,89,0.00,,,0.00,Wunderground v.1.15,2013-05-06 13:17:00,
2013-05-06 08:22:00,44.8,41.8,30.10,ENE,67,0.0,1.0,89,0.00,,,0.00,Wunderground v.1.15,2013-05-06 13:22:00,
2013-05-06 08:26:00,45.0,42.0,30.10,SE,134,0.0,2.0,89,0.00,,,0.00,Wunderground v.1.15,2013-05-06 13:26:00,
2013-05-06 08:32:00,45.1,42.1,30.10,ESE,123,2.0,5.0,89,0.00,,,0.00,Wunderground v.1.15,2013-05-06 13:32:00,
2013-05-06 08:37:00,45.4,42.3,30.10,ESE,123,1.0,5.0,89,0.00,,,0.00,Wunderground v.1.15,2013-05-06 13:37:00,
2013-05-06 08:42:00,45.6,42.5,30.10,ESE,122,2.0,4.0,89,0.00,,,0.00,Wunderground v.1.15,2013-05-06 13:42:00,
2013-05-06 08:47:00,45.8,42.4,30.10,ESE,122,0.0,5.0,88,0.00,,,0.00,Wunderground v.1.15,2013-05-06 13:47:00,
2013-05-06 08:52:00,46.1,42.7,30.11,ESE,123,0.0,1.0,88,0.00,,,0.00,Wunderground v.1.15,2013-05-06 13:52:00,
2013-05-06 08:57:00,46.4,42.7,30.11,ESE,122,0.0,4.0,87,0.00,,,0.00,Wunderground v.1.15,2013-05-06 13:57:00,
2013-05-06 09:02:00,46.6,42.9,30.11,ESE,122,1.0,3.0,87,0.00,,,0.00,Wunderground v.1.15,2013-05-06 14:02:00,
2013-05-06 09:07:00,47.0,43.3,30.11,ESE,123,0.0,3.0,87,0.00,,,0.00,Wunderground v.1.15,2013-05-06 14:07:00,
2013-05-06 09:12:00,47.2,43.2,30.11,ESE,122,0.0,4.0,86,0.00,,,0.00,Wunderground v.1.15,2013-05-06 14:12:00,
2013-05-06 09:17:00,47.5,43.5,30.10,ESE,123,3.0,4.0,86,0.00,,,0.00,Wunderground v.1.15,2013-05-06 14:17:00,
2013-05-06 09:22:00,47.6,43.6,30.11,ESE,123,3.0,5.0,86,0.00,,,0.00,Wunderground v.1.15,2013-05-06 14:22:00,
2013-05-06 09:27:00,47.9,43.9,30.10,ESE,122,2.0,5.0,86,0.00,,,0.00,Wunderground v.1.15,2013-05-06 14:27:00,
2013-05-06 09:32:00,48.3,44.0,30.10,NW,317,4.0,6.0,85,0.00,,,0.00,Wunderground v.1.15,2013-05-06 14:32:00,
2013-05-06 09:37:00,48.5,44.2,30.11,NW,319,4.0,7.0,85,0.00,,,0.00,Wunderground v.1.15,2013-05-06 14:37:00,
2013-05-06 09:42:00,48.7,44.4,30.10,NNW,336,4.0,4.0,85,0.00,,,0.00,Wunderground v.1.15,2013-05-06 14:42:00,
2013-05-06 09:47:00,49.1,44.5,30.10,NNW,336,3.0,4.0,84,0.00,,,0.00,Wunderground v.1.15,2013-05-06 14:47:00,
2013-05-06 09:52:00,49.5,44.9,30.10,NNW,344,2.0,5.0,84,0.00,,,0.00,Wunderground v.1.15,2013-05-06 14:52:00,
2013-05-06 09:57:00,49.9,45.3,30.10,NNW,344,0.0,5.0,84,0.00,,,0.00,Wunderground v.1.15,2013-05-06 14:57:00,
2013-05-06 10:02:00,50.2,44.9,30.10,NNW,338,4.0,7.0,82,0.00,,,0.00,Wunderground v.1.15,2013-05-06 15:02:00,
2013-05-06 10:07:00,50.2,44.9,30.10,NNW,338,1.0,7.0,82,0.00,,,0.00,Wunderground v.1.15,2013-05-06 15:07:00,
2013-05-06 10:12:00,50.4,45.1,30.10,NNW,337,0.0,5.0,82,0.00,,,0.00,Wunderground v.1.15,2013-05-06 15:12:00,
2013-05-06 10:17:00,50.5,44.9,30.10,NW,325,4.0,8.0,81,0.00,,,0.00,Wunderground v.1.15,2013-05-06 15:17:00,
2013-05-06 10:22:00,50.4,45.1,30.10,NW,318,6.0,8.0,82,0.00,,,0.00,Wunderground v.1.15,2013-05-06 15:22:00,
2013-05-06 10:27:00,50.5,44.9,30.10,NW,319,6.0,8.0,81,0.00,,,0.00,Wunderground v.1.15,2013-05-06 15:27:00,
2013-05-06 10:32:00,50.5,45.2,30.10,NW,318,1.0,5.0,82,0.00,,,0.00,Wunderground v.1.15,2013-05-06 15:32:00,
2013-05-06 10:37:00,50.9,45.6,30.10,NW,318,4.0,6.0,82,0.00,,,0.00,Wunderground v.1.15,2013-05-06 15:37:00,
2013-05-06 10:42:00,51.1,45.8,30.10,NW,319,1.0,4.0,82,0.00,,,0.00,Wunderground v.1.15,2013-05-06 15:42:00,
2013-05-06 10:47:00,51.7,46.1,30.10,NW,319,1.0,5.0,81,0.00,,,0.00,Wunderground v.1.15,2013-05-06 15:47:00,
2013-05-06 10:52:00,52.0,46.0,30.10,NW,319,4.0,6.0,80,0.00,,,0.00,Wunderground v.1.15,2013-05-06 15:52:00,
2013-05-06 10:57:00,52.2,46.2,30.10,NW,318,0.0,8.0,80,0.00,,,0.00,Wunderground v.1.15,2013-05-06 15:57:00,
2013-05-06 11:02:00,52.2,45.9,30.10,NW,319,2.0,3.0,79,0.00,,,0.00,Wunderground v.1.15,2013-05-06 16:02:00,
2013-05-06 11:08:00,52.6,46.6,30.10,NW,318,1.0,6.0,80,0.00,,,0.00,Wunderground v.1.15,2013-05-06 16:08:00,
2013-05-06 11:12:00,53.0,47.0,30.10,NW,319,0.0,4.0,80,0.00,,,0.00,Wunderground v.1.15,2013-05-06 16:12:00,
2013-05-06 11:17:00,53.5,47.1,30.10,NW,319,0.0,4.0,79,0.00,,,0.00,Wunderground v.1.15,2013-05-06 16:17:00,
2013-05-06 11:22:00,53.8,47.4,30.10,NW,319,0.0,3.0,79,0.00,,,0.00,Wunderground v.1.15,2013-05-06 16:22:00,
2013-05-06 11:28:00,54.6,48.2,30.10,NW,319,4.0,4.0,79,0.00,,,0.00,Wunderground v.1.15,2013-05-06 16:28:00,
2013-05-06 11:33:00,55.2,48.5,30.10,NW,319,4.0,4.0,78,0.00,,,0.00,Wunderground v.1.15,2013-05-06 16:33:00,
2013-05-06 11:38:00,55.6,48.2,30.10,NW,318,2.0,4.0,76,0.00,,,0.00,Wunderground v.1.15,2013-05-06 16:38:00,
2013-05-06 11:43:00,55.6,47.8,30.10,NW,319,2.0,4.0,75,0.00,,,0.00,Wunderground v.1.15,2013-05-06 16:43:00,
2013-05-06 11:48:00,55.6,48.2,30.10,NW,318,0.0,4.0,76,0.00,,,0.00,Wunderground v.1.15,2013-05-06 16:48:00,
2013-05-06 11:53:00,55.8,48.7,30.09,NNE,25,2.0,5.0,77,0.00,,,0.00,Wunderground v.1.15,2013-05-06 16:53:00,
2013-05-06 11:58:00,55.8,48.0,30.09,NNE,18,0.0,6.0,75,0.00,,,0.00,Wunderground v.1.15,2013-05-06 16:58:00,
2013-05-06 12:03:00,55.9,48.1,30.09,NNE,19,0.0,2.0,75,0.00,,,0.00,Wunderground v.1.15,2013-05-06 17:03:00,
2013-05-06 12:08:00,56.8,49.0,30.09,NNE,24,0.0,5.0,75,0.00,,,0.00,Wunderground v.1.15,2013-05-06 17:08:00,
2013-05-06 12:13:00,57.2,49.0,30.09,NNE,24,1.0,1.0,74,0.00,,,0.00,Wunderground v.1.15,2013-05-06 17:13:00,
2013-05-06 12:18:00,57.7,49.8,30.09,NNE,24,0.0,4.0,75,0.00,,,0.00,Wunderground v.1.15,2013-05-06 17:18:00,
2013-05-06 12:23:00,57.7,48.7,30.09,North,349,3.0,7.0,72,0.00,,,0.00,Wunderground v.1.15,2013-05-06 17:23:00,
2013-05-06 12:29:00,57.1,48.9,30.09,North,349,0.0,7.0,74,0.00,,,0.00,Wunderground v.1.15,2013-05-06 17:29:00,
2013-05-06 12:34:00,57.1,48.9,30.09,NNW,347,1.0,7.0,74,0.00,,,0.00,Wunderground v.1.15,2013-05-06 17:34:00,
2013-05-06 12:39:00,56.7,48.5,30.09,NNW,333,3.0,7.0,74,0.00,,,0.00,Wunderground v.1.15,2013-05-06 17:39:00,
2013-05-06 12:44:00,57.0,48.8,30.09,NNW,331,7.0,7.0,74,0.00,,,0.00,Wunderground v.1.15,2013-05-06 17:44:00,
2013-05-06 12:48:00,57.2,49.0,30.09,NNW,331,3.0,7.0,74,0.00,,,0.00,Wunderground v.1.15,2013-05-06 17:48:00,
2013-05-06 12:53:00,57.5,49.6,30.09,NW,309,8.0,9.0,75,0.00,,,0.00,Wunderground v.1.15,2013-05-06 17:53:00,
2013-05-06 12:59:00,57.7,49.5,30.08,WNW,303,5.0,9.0,74,0.00,,,0.00,Wunderground v.1.15,2013-05-06 17:59:00,
2013-05-06 13:04:00,57.9,49.3,30.08,WNW,303,6.0,7.0,73,0.00,,,0.00,Wunderground v.1.15,2013-05-06 18:04:00,
2013-05-06 13:09:00,58.1,49.9,30.08,WNW,303,1.0,9.0,74,0.00,,,0.00,Wunderground v.1.15,2013-05-06 18:09:00,
2013-05-06 13:14:00,57.8,49.6,30.08,NW,304,5.0,7.0,74,0.00,,,0.00,Wunderground v.1.15,2013-05-06 18:14:00,
2013-05-06 13:19:00,57.7,49.5,30.08,NW,314,2.0,9.0,74,0.00,,,0.00,Wunderground v.1.15,2013-05-06 18:19:00,
2013-05-06 13:24:00,58.0,49.8,30.08,NW,314,5.0,7.0,74,0.00,,,0.00,Wunderground v.1.15,2013-05-06 18:24:00,
2013-05-06 13:29:00,57.9,49.3,30.08,NW,314,0.0,9.0,73,0.00,,,0.00,Wunderground v.1.15,2013-05-06 18:29:00,
2013-05-06 13:34:00,58.3,50.0,30.08,NW,314,1.0,7.0,74,0.00,,,0.00,Wunderground v.1.15,2013-05-06 18:34:00,
2013-05-06 13:39:00,59.0,51.1,30.08,NW,314,2.0,11.0,75,0.00,,,0.00,Wunderground v.1.15,2013-05-06 18:39:00,
2013-05-06 13:44:00,59.9,52.0,30.07,NW,314,0.0,3.0,75,0.00,,,0.00,Wunderground v.1.15,2013-05-06 18:44:00,
2013-05-06 13:49:00,60.3,50.5,30.07,NW,304,5.0,12.0,70,0.00,,,0.00,Wunderground v.1.15,2013-05-06 18:49:00,
2013-05-06 13:54:00,59.5,50.1,30.07,NW,304,2.0,8.0,71,0.00,,,0.00,Wunderground v.1.15,2013-05-06 18:54:00,
2013-05-06 13:59:00,59.0,49.6,30.07,NW,304,0.0,8.0,71,0.00,,,0.00,Wunderground v.1.15,2013-05-06 18:59:00,
2013-05-06 14:04:00,59.7,51.0,30.07,NW,304,4.0,8.0,73,0.00,,,0.00,Wunderground v.1.15,2013-05-06 19:04:00,
2013-05-06 14:09:00,60.0,50.6,30.07,NW,306,1.0,11.0,71,0.00,,,0.00,Wunderground v.1.15,2013-05-06 19:09:00,
2013-05-06 14:14:00,60.1,51.0,30.07,NW,306,0.0,7.0,72,0.00,,,0.00,Wunderground v.1.15,2013-05-06 19:14:00,
2013-05-06 14:19:00,60.2,50.4,30.07,NW,306,0.0,7.0,70,0.00,,,0.00,Wunderground v.1.15,2013-05-06 19:19:00,
2013-05-06 14:24:00,60.0,50.2,30.07,NW,306,3.0,4.0,70,0.00,,,0.00,Wunderground v.1.15,2013-05-06 19:24:00,
2013-05-06 14:29:00,60.2,51.1,30.07,NW,306,2.0,4.0,72,0.00,,,0.00,Wunderground v.1.15,2013-05-06 19:29:00,
2013-05-06 14:34:00,60.2,50.0,30.07,NW,306,0.0,8.0,69,0.00,,,0.00,Wunderground v.1.15,2013-05-06 19:34:00,
2013-05-06 14:39:00,59.9,50.1,30.06,NW,306,5.0,8.0,70,0.00,,,0.00,Wunderground v.1.15,2013-05-06 19:39:00,
2013-05-06 14:44:00,59.7,49.9,30.06,NW,306,0.0,6.0,70,0.00,,,0.00,Wunderground v.1.15,2013-05-06 19:44:00,
2013-05-06 14:49:00,59.9,50.8,30.06,NW,306,3.0,7.0,72,0.00,,,0.00,Wunderground v.1.15,2013-05-06 19:49:00,
2013-05-06 14:54:00,60.2,50.4,30.06,NW,306,0.0,3.0,70,0.00,,,0.00,Wunderground v.1.15,2013-05-06 19:54:00,
2013-05-06 14:59:00,60.5,50.3,30.06,NW,306,1.0,7.0,69,0.00,,,0.00,Wunderground v.1.15,2013-05-06 19:59:00,
2013-05-06 15:04:00,60.3,50.5,30.05,NW,306,4.0,7.0,70,0.00,,,0.00,Wunderground v.1.15,2013-05-06 20:04:00,
2013-05-06 15:10:00,60.4,50.6,30.05,NW,306,2.0,2.0,70,0.00,,,0.00,Wunderground v.1.15,2013-05-06 20:10:00,
2013-05-06 15:16:00,60.8,50.6,30.05,NW,306,0.0,2.0,69,0.00,,,0.00,Wunderground v.1.15,2013-05-06 20:16:00,
2013-05-06 15:21:00,62.3,52.0,30.05,NW,306,0.0,0.0,69,0.00,,,0.00,Wunderground v.1.15,2013-05-06 20:21:00,
2013-05-06 15:26:00,62.2,50.7,30.05,NW,306,0.0,3.0,66,0.00,,,0.00,Wunderground v.1.15,2013-05-06 20:26:00,
2013-05-06 15:31:00,61.7,50.6,30.05,NW,306,0.0,2.0,67,0.00,,,0.00,Wunderground v.1.15,2013-05-06 20:31:00,
2013-05-06 15:36:00,62.3,51.6,30.04,NW,306,2.0,6.0,68,0.00,,,0.00,Wunderground v.1.15,2013-05-06 20:36:00,
2013-05-06 15:41:00,62.7,51.2,30.04,NW,306,4.0,7.0,66,0.00,,,0.00,Wunderground v.1.15,2013-05-06 20:41:00,
2013-05-06 15:46:00,62.1,50.6,30.04,NW,306,3.0,8.0,66,0.00,,,0.00,Wunderground v.1.15,2013-05-06 20:46:00,
2013-05-06 15:51:00,62.0,51.3,30.04,NW,306,1.0,4.0,68,0.00,,,0.00,Wunderground v.1.15,2013-05-06 20:51:00,
2013-05-06 15:56:00,62.1,51.8,30.04,NW,306,3.0,4.0,69,0.00,,,0.00,Wunderground v.1.15,2013-05-06 20:56:00,
2013-05-06 16:01:00,62.3,51.2,30.04,NW,306,2.0,2.0,67,0.00,,,0.00,Wunderground v.1.15,2013-05-06 21:01:00,
2013-05-06 16:06:00,62.0,50.9,30.03,NW,306,0.0,5.0,67,0.00,,,0.00,Wunderground v.1.15,2013-05-06 21:06:00,
2013-05-06 16:11:00,61.9,50.8,30.03,NW,306,1.0,4.0,67,0.00,,,0.00,Wunderground v.1.15,2013-05-06 21:11:00,
2013-05-06 16:16:00,61.7,50.6,30.03,NW,306,3.0,6.0,67,0.00,,,0.00,Wunderground v.1.15,2013-05-06 21:16:00,
2013-05-06 16:21:00,61.7,50.6,30.03,NW,306,3.0,3.0,67,0.00,,,0.00,Wunderground v.1.15,2013-05-06 21:21:00,
2013-05-06 16:26:00,62.1,51.0,30.02,NW,306,0.0,3.0,67,0.00,,,0.00,Wunderground v.1.15,2013-05-06 21:26:00,
2013-05-06 16:31:00,62.6,51.1,30.02,NW,306,0.0,0.0,66,0.00,,,0.00,Wunderground v.1.15,2013-05-06 21:31:00,
2013-05-06 16:37:00,62.5,51.0,30.02,NW,306,1.0,4.0,66,0.00,,,0.00,Wunderground v.1.15,2013-05-06 21:37:00,
2013-05-06 16:42:00,62.7,51.2,30.02,NW,306,4.0,6.0,66,0.00,,,0.00,Wunderground v.1.15,2013-05-06 21:42:00,
2013-05-06 16:47:00,62.5,50.6,30.02,NW,306,1.0,6.0,65,0.00,,,0.00,Wunderground v.1.15,2013-05-06 21:47:00,
2013-05-06 16:52:00,62.8,50.9,30.02,NW,306,1.0,5.0,65,0.00,,,0.00,Wunderground v.1.15,2013-05-06 21:52:00,
2013-05-06 16:57:00,63.4,51.4,30.02,NW,306,3.0,5.0,65,0.00,,,0.00,Wunderground v.1.15,2013-05-06 21:57:00,
2013-05-06 17:02:00,63.2,50.8,30.02,NW,306,4.0,6.0,64,0.00,,,0.00,Wunderground v.1.15,2013-05-06 22:02:00,
2013-05-06 17:07:00,63.0,50.6,30.02,NW,306,0.0,6.0,64,0.00,,,0.00,Wunderground v.1.15,2013-05-06 22:07:00,
2013-05-06 17:12:00,62.8,50.9,30.01,NW,306,4.0,4.0,65,0.00,,,0.00,Wunderground v.1.15,2013-05-06 22:12:00,
2013-05-06 17:17:00,62.7,50.3,30.01,NW,306,0.0,4.0,64,0.00,,,0.00,Wunderground v.1.15,2013-05-06 22:17:00,
2013-05-06 17:22:00,62.8,50.9,30.01,West,281,4.0,5.0,65,0.00,,,0.00,Wunderground v.1.15,2013-05-06 22:22:00,
2013-05-06 17:27:00,62.7,50.3,30.01,West,278,2.0,5.0,64,0.00,,,0.00,Wunderground v.1.15,2013-05-06 22:27:00,
2013-05-06 17:32:00,63.0,50.6,30.01,West,276,3.0,7.0,64,0.00,,,0.00,Wunderground v.1.15,2013-05-06 22:32:00,
2013-05-06 17:37:00,62.9,50.5,30.01,West,269,1.0,7.0,64,0.00,,,0.00,Wunderground v.1.15,2013-05-06 22:37:00,
2013-05-06 17:42:00,63.1,51.1,30.01,West,269,0.0,3.0,65,0.00,,,0.00,Wunderground v.1.15,2013-05-06 22:42:00,
2013-05-06 17:47:00,63.3,50.5,30.01,West,268,0.0,3.0,63,0.00,,,0.00,Wunderground v.1.15,2013-05-06 22:47:00,
2013-05-06 17:52:00,63.5,50.7,30.01,West,268,0.0,3.0,63,0.00,,,0.00,Wunderground v.1.15,2013-05-06 22:52:00,
2013-05-06 17:57:00,64.1,51.7,30.01,West,269,3.0,3.0,64,0.00,,,0.00,Wunderground v.1.15,2013-05-06 22:57:00,
2013-05-06 18:02:00,64.4,51.1,30.00,West,269,0.0,1.0,62,0.00,,,0.00,Wunderground v.1.15,2013-05-06 23:02:00,
2013-05-06 18:07:00,64.5,51.2,30.00,West,268,0.0,1.0,62,0.00,,,0.00,Wunderground v.1.15,2013-05-06 23:07:00,
2013-05-06 18:12:00,64.8,51.5,30.00,West,269,0.0,0.0,62,0.00,,,0.00,Wunderground v.1.15,2013-05-06 23:12:00,
2013-05-06 18:17:00,64.8,50.6,30.00,West,269,1.0,4.0,60,0.00,,,0.00,Wunderground v.1.15,2013-05-06 23:17:00,
2013-05-06 18:22:00,64.9,50.7,30.00,West,268,1.0,3.0,60,0.00,,,0.00,Wunderground v.1.15,2013-05-06 23:22:00,
2013-05-06 18:27:00,65.1,50.9,30.00,West,269,0.0,3.0,60,0.00,,,0.00,Wunderground v.1.15,2013-05-06 23:27:00,
2013-05-06 18:32:00,65.2,51.8,30.00,West,269,0.0,3.0,62,0.00,,,0.00,Wunderground v.1.15,2013-05-06 23:32:00,
2013-05-06 18:37:00,65.4,51.1,30.00,West,269,0.0,3.0,60,0.00,,,0.00,Wunderground v.1.15,2013-05-06 23:37:00,
2013-05-06 18:42:00,65.5,50.8,30.00,West,269,3.0,4.0,59,0.00,,,0.00,Wunderground v.1.15,2013-05-06 23:42:00,
2013-05-06 18:47:00,64.9,50.2,30.00,West,269,0.0,4.0,59,0.00,,,0.00,Wunderground v.1.15,2013-05-06 23:47:00,
2013-05-06 18:52:00,64.4,50.2,30.00,West,268,0.0,4.0,60,0.00,,,0.00,Wunderground v.1.15,2013-05-06 23:52:00,
2013-05-06 18:57:00,64.5,50.3,30.00,West,269,0.0,4.0,60,0.00,,,0.00,Wunderground v.1.15,2013-05-06 23:57:00,
2013-05-06 19:02:00,64.7,50.5,30.00,West,269,0.0,3.0,60,0.00,,,0.00,Wunderground v.1.15,2013-05-07 00:02:00,
2013-05-06 19:07:00,64.3,50.6,29.99,West,269,0.0,3.0,61,0.00,,,0.00,Wunderground v.1.15,2013-05-07 00:07:00,
2013-05-06 19:12:00,64.1,49.9,29.99,West,269,0.0,1.0,60,0.00,,,0.00,Wunderground v.1.15,2013-05-07 00:12:00,
2013-05-06 19:17:00,64.3,50.6,29.99,West,269,0.0,2.0,61,0.00,,,0.00,Wunderground v.1.15,2013-05-07 00:17:00,
2013-05-06 19:22:00,64.1,51.2,29.99,West,269,1.0,3.0,63,0.00,,,0.00,Wunderground v.1.15,2013-05-07 00:22:00,
2013-05-06 19:27:00,63.5,51.1,29.99,West,269,2.0,4.0,64,0.00,,,0.00,Wunderground v.1.15,2013-05-07 00:27:00,
2013-05-06 19:32:00,63.0,50.6,29.99,West,268,1.0,3.0,64,0.00,,,0.00,Wunderground v.1.15,2013-05-07 00:32:00,
2013-05-06 19:37:00,62.7,50.8,29.99,West,268,0.0,3.0,65,0.00,,,0.00,Wunderground v.1.15,2013-05-07 00:37:00,
2013-05-06 19:43:00,62.4,50.5,29.99,SW,225,1.0,1.0,65,0.00,,,0.00,Wunderground v.1.15,2013-05-07 00:43:00,
2013-05-06 19:48:00,62.0,50.5,29.99,SW,225,0.0,1.0,66,0.00,,,0.00,Wunderground v.1.15,2013-05-07 00:48:00,
2013-05-06 19:53:00,61.5,50.0,29.99,SW,225,0.0,0.0,66,0.00,,,0.00,Wunderground v.1.15,2013-05-07 00:53:00,
2013-05-06 19:58:00,60.9,49.9,29.99,SW,225,0.0,0.0,67,0.00,,,0.00,Wunderground v.1.15,2013-05-07 00:58:00,
2013-05-06 20:03:00,60.4,49.8,29.99,SW,225,0.0,0.0,68,0.00,,,0.00,Wunderground v.1.15,2013-05-07 01:03:00,
2013-05-06 20:08:00,59.8,50.0,29.99,SW,225,0.0,0.0,70,0.00,,,0.00,Wunderground v.1.15,2013-05-07 01:08:00,
2013-05-06 20:13:00,59.3,49.5,29.99,SW,225,0.0,0.0,70,0.00,,,0.00,Wunderground v.1.15,2013-05-07 01:13:00,
2013-05-06 20:18:00,58.9,49.5,29.99,SW,220,0.0,0.0,71,0.00,,,0.00,Wunderground v.1.15,2013-05-07 01:18:00,
2013-05-06 20:23:00,57.8,49.6,29.99,SSE,152,0.0,0.0,74,0.00,,,0.00,Wunderground v.1.15,2013-05-07 01:23:00,
2013-05-06 20:28:00,56.6,48.0,29.99,SSE,153,0.0,0.0,73,0.00,,,0.00,Wunderground v.1.15,2013-05-07 01:28:00,
2013-05-06 20:33:00,55.5,47.7,29.99,SSE,153,0.0,0.0,75,0.00,,,0.00,Wunderground v.1.15,2013-05-07 01:33:00,
2013-05-06 20:38:00,54.6,47.2,29.99,SSE,153,0.0,0.0,76,0.00,,,0.00,Wunderground v.1.15,2013-05-07 01:38:00,
2013-05-06 20:43:00,53.9,46.9,29.99,SSE,153,0.0,0.0,77,0.00,,,0.00,Wunderground v.1.15,2013-05-07 01:43:00,
2013-05-06 20:48:00,53.3,46.6,29.99,SSE,153,0.0,0.0,78,0.00,,,0.00,Wunderground v.1.15,2013-05-07 01:48:00,
2013-05-06 20:54:00,52.4,45.7,30.00,SSE,153,0.0,0.0,78,0.00,,,0.00,Wunderground v.1.15,2013-05-07 01:54:00,
2013-05-06 20:59:00,51.7,45.4,30.00,SSE,153,0.0,0.0,79,0.00,,,0.00,Wunderground v.1.15,2013-05-07 01:59:00,
2013-05-06 21:04:00,51.3,45.7,30.00,SSE,153,0.0,0.0,81,0.00,,,0.00,Wunderground v.1.15,2013-05-07 02:04:00,
2013-05-06 21:09:00,50.8,45.5,30.00,SSE,153,0.0,0.0,82,0.00,,,0.00,Wunderground v.1.15,2013-05-07 02:09:00,
2013-05-06 21:14:00,50.4,45.1,30.00,SSE,153,0.0,0.0,82,0.00,,,0.00,Wunderground v.1.15,2013-05-07 02:14:00,
2013-05-06 21:19:00,49.6,44.6,30.00,SSE,153,0.0,0.0,83,0.00,,,0.00,Wunderground v.1.15,2013-05-07 02:19:00,
2013-05-06 21:24:00,49.2,44.6,30.00,SSE,153,0.0,0.0,84,0.00,,,0.00,Wunderground v.1.15,2013-05-07 02:24:00,
2013-05-06 21:29:00,48.8,44.5,30.01,SSE,153,0.0,0.0,85,0.00,,,0.00,Wunderground v.1.15,2013-05-07 02:29:00,
2013-05-06 21:34:00,48.5,44.2,30.01,SSE,153,0.0,0.0,85,0.00,,,0.00,Wunderground v.1.15,2013-05-07 02:34:00,
2013-05-06 21:39:00,48.2,44.2,30.01,SSE,153,0.0,0.0,86,0.00,,,0.00,Wunderground v.1.15,2013-05-07 02:39:00,
2013-05-06 21:44:00,47.7,43.7,30.01,SSE,153,0.0,0.0,86,0.00,,,0.00,Wunderground v.1.15,2013-05-07 02:44:00,
2013-05-06 21:49:00,47.3,43.3,30.01,SSE,153,0.0,0.0,86,0.00,,,0.00,Wunderground v.1.15,2013-05-07 02:49:00,
2013-05-06 21:54:00,47.0,43.3,30.01,SSE,153,0.0,0.0,87,0.00,,,0.00,Wunderground v.1.15,2013-05-07 02:54:00,
2013-05-06 21:59:00,46.6,42.9,30.02,SSE,153,0.0,0.0,87,0.00,,,0.00,Wunderground v.1.15,2013-05-07 02:59:00,
2013-05-06 22:04:00,46.4,42.7,30.02,SSE,153,0.0,0.0,87,0.00,,,0.00,Wunderground v.1.15,2013-05-07 03:04:00,
2013-05-06 22:09:00,46.3,42.9,30.02,SSE,153,0.0,0.0,88,0.00,,,0.00,Wunderground v.1.15,2013-05-07 03:09:00,
2013-05-06 22:14:00,46.1,42.7,30.02,SSE,153,0.0,0.0,88,0.00,,,0.00,Wunderground v.1.15,2013-05-07 03:14:00,
2013-05-06 22:19:00,45.9,42.5,30.02,SSE,153,0.0,0.0,88,0.00,,,0.00,Wunderground v.1.15,2013-05-07 03:19:00,
2013-05-06 22:24:00,45.7,42.6,30.02,SSE,153,0.0,0.0,89,0.00,,,0.00,Wunderground v.1.15,2013-05-07 03:24:00,
2013-05-06 22:29:00,45.8,42.7,30.02,SSE,153,0.0,0.0,89,0.00,,,0.00,Wunderground v.1.15,2013-05-07 03:29:00,
2013-05-06 22:34:00,45.9,42.8,30.02,SSE,153,0.0,0.0,89,0.00,,,0.00,Wunderground v.1.15,2013-05-07 03:34:00,
2013-05-06 22:39:00,46.1,43.3,30.02,SSE,153,0.0,0.0,90,0.00,,,0.00,Wunderground v.1.15,2013-05-07 03:39:00,
2013-05-06 22:44:00,46.4,43.6,30.02,SSE,153,0.0,0.0,90,0.00,,,0.00,Wunderground v.1.15,2013-05-07 03:44:00,
2013-05-06 22:49:00,46.5,43.7,30.02,SSE,153,0.0,0.0,90,0.00,,,0.00,Wunderground v.1.15,2013-05-07 03:49:00,
2013-05-06 22:54:00,46.4,43.6,30.02,SSE,153,0.0,0.0,90,0.00,,,0.00,Wunderground v.1.15,2013-05-07 03:54:00,
2013-05-06 22:59:00,46.6,44.1,30.02,SSE,153,0.0,0.0,91,0.00,,,0.00,Wunderground v.1.15,2013-05-07 03:59:00,
2013-05-06 23:01:00,46.8,44.3,30.02,SSE,153,0.0,0.0,91,0.00,,,0.00,Wunderground v.1.15,2013-05-07 04:01:00,
2013-05-06 23:02:00,46.9,44.4,30.02,SSE,153,0.0,0.0,91,0.00,,,0.00,Wunderground v.1.15,2013-05-07 04:02:00,
2013-05-06 23:07:00,47.2,44.7,30.02,SSE,153,0.0,0.0,91,0.00,,,0.00,Wunderground v.1.15,2013-05-07 04:07:00,
2013-05-06 23:12:00,46.8,44.0,30.02,SSE,153,0.0,0.0,90,0.00,,,0.00,Wunderground v.1.15,2013-05-07 04:12:00,
2013-05-06 23:17:00,46.3,43.5,30.02,SSE,153,0.0,0.0,90,0.00,,,0.00,Wunderground v.1.15,2013-05-07 04:17:00,
2013-05-06 23:22:00,45.6,42.8,30.03,SSE,153,0.0,0.0,90,0.00,,,0.00,Wunderground v.1.15,2013-05-07 04:22:00,
2013-05-06 23:27:00,45.0,42.2,30.03,SSE,153,0.0,0.0,90,0.00,,,0.00,Wunderground v.1.15,2013-05-07 04:27:00,
2013-05-06 23:32:00,44.6,41.8,30.02,SSE,153,0.0,0.0,90,0.00,,,0.00,Wunderground v.1.15,2013-05-07 04:32:00,
2013-05-06 23:37:00,44.2,41.5,30.03,SSE,153,0.0,0.0,90,0.00,,,0.00,Wunderground v.1.15,2013-05-07 04:37:00,
2013-05-06 23:42:00,44.1,41.6,30.03,SSE,153,0.0,0.0,91,0.00,,,0.00,Wunderground v.1.15,2013-05-07 04:42:00,
2013-05-06 23:47:00,44.1,41.6,30.02,SSE,153,0.0,0.0,91,0.00,,,0.00,Wunderground v.1.15,2013-05-07 04:47:00,
2013-05-06 23:53:00,44.2,41.7,30.02,SSE,153,0.0,0.0,91,0.00,,,0.00,Wunderground v.1.15,2013-05-07 04:53:00,
2013-05-06 23:58:00,44.3,41.8,30.02,SSE,153,0.0,0.0,91,0.00,,,0.00,Wunderground v.1.15,2013-05-07 04:58:00,